Time;durP1;ratioP1;P1;durP2;ratioP2;P2;SDS_P1;SDS_P2;PMS_P1;PMS_P2;Temp;Humidity;BMP_temperature;BMP_pressure;BME280_temperature;BME280_humidity;BME280_pressure;Samples;Min_cycle;Max_cycle;Signal;HPM_P1;HPM_P2
2023/09/24 00:02:19;;;;;;;3.92;1.90;;;13.10;99.90;;;;;;4982516;28;20050;-35
2023/09/24 00:04:45;;;;;;;6.25;2.60;;;13.00;99.90;;;;;;4986262;28;20054;-35
2023/09/24 00:07:12;;;;;;;9.07;2.88;;;13.00;99.90;;;;;;4981315;28;20097;-35
2023/09/24 00:09:38;;;;;;;6.50;2.72;;;12.90;99.90;;;;;;4982346;28;20556;-35
2023/09/24 00:12:04;;;;;;;4.13;2.40;;;12.90;99.90;;;;;;4986074;28;20133;-35
2023/09/24 00:14:30;;;;;;;5.72;2.50;;;12.80;99.90;;;;;;4984365;28;20086;-35
2023/09/24 00:16:57;;;;;;;5.75;2.63;;;12.80;99.90;;;;;;4986427;28;20129;-35
2023/09/24 00:19:24;;;;;;;28.10;5.13;;;12.80;99.90;;;;;;4983646;28;20047;-34
2023/09/24 00:21:50;;;;;;;13.23;2.70;;;12.80;99.90;;;;;;4984080;28;20058;-33
2023/09/24 00:24:18;;;;;;;33.83;4.88;;;12.70;99.90;;;;;;4983997;28;20046;-34
2023/09/24 00:26:45;;;;;;;13.57;2.55;;;12.70;99.90;;;;;;4981489;28;20057;-34
2023/09/24 00:29:12;;;;;;;18.38;2.75;;;12.70;99.90;;;;;;4985897;28;20047;-34
2023/09/24 00:31:37;;;;;;;6.05;2.45;;;12.70;99.90;;;;;;4985185;28;20058;-34
2023/09/24 00:34:04;;;;;;;4.18;2.33;;;12.70;99.90;;;;;;4984104;28;20100;-33
2023/09/24 00:36:29;;;;;;;4.28;2.33;;;12.60;99.90;;;;;;4979964;28;20564;-34
2023/09/24 00:38:55;;;;;;;5.75;2.00;;;12.60;99.90;;;;;;4985891;28;20060;-34
2023/09/24 00:41:21;;;;;;;2.95;1.48;;;12.60;99.90;;;;;;4983813;28;20306;-34
2023/09/24 00:43:46;;;;;;;3.45;1.80;;;12.50;99.90;;;;;;4984013;28;20046;-34
2023/09/24 00:46:14;;;;;;;2.30;1.40;;;12.50;99.90;;;;;;4986381;28;20046;-34
2023/09/24 00:48:40;;;;;;;3.38;1.77;;;12.50;99.90;;;;;;4983819;28;20118;-34
2023/09/24 00:51:18;;;;;;;3.10;1.70;;;12.50;99.90;;;;;;4988753;28;20061;-34
2023/09/24 00:53:46;;;;;;;3.40;1.70;;;12.40;99.90;;;;;;4982332;28;20084;-34
2023/09/24 00:56:13;;;;;;;5.07;1.60;;;12.40;99.90;;;;;;4985912;28;20420;-33
2023/09/24 00:58:42;;;;;;;4.75;1.88;;;12.40;99.90;;;;;;4964972;28;20049;-34
2023/09/24 01:01:08;;;;;;;3.13;1.45;;;12.40;99.90;;;;;;4983555;28;20051;-34
2023/09/24 01:03:33;;;;;;;2.63;1.20;;;12.30;99.90;;;;;;4984655;28;20062;-34
2023/09/24 01:05:59;;;;;;;2.90;1.40;;;12.30;99.90;;;;;;4984563;28;20488;-34
2023/09/24 01:08:31;;;;;;;4.35;1.33;;;12.30;99.90;;;;;;4984278;28;20046;-34
2023/09/24 01:10:58;;;;;;;2.70;1.38;;;12.30;99.90;;;;;;4987179;28;20050;-35
2023/09/24 01:13:24;;;;;;;2.45;1.17;;;12.30;99.90;;;;;;4983214;28;20334;-34
2023/09/24 01:15:50;;;;;;;4.28;1.30;;;12.30;99.90;;;;;;4986410;28;20046;-35
2023/09/24 01:18:17;;;;;;;2.70;1.50;;;12.30;99.90;;;;;;4969834;28;20485;-35
2023/09/24 01:20:43;;;;;;;3.03;1.00;;;12.30;99.90;;;;;;4985587;28;20053;-35
2023/09/24 01:23:10;;;;;;;3.72;1.25;;;12.30;99.90;;;;;;4978746;28;20053;-35
2023/09/24 01:25:37;;;;;;;5.78;1.20;;;12.30;99.90;;;;;;4983346;28;20572;-34
2023/09/24 01:28:04;;;;;;;4.45;1.25;;;12.30;99.90;;;;;;4983746;28;20054;-34
2023/09/24 01:30:30;;;;;;;3.97;1.30;;;12.20;99.90;;;;;;4984914;28;20524;-34
2023/09/24 01:32:57;;;;;;;2.95;1.42;;;12.20;99.90;;;;;;4987524;28;20141;-33
2023/09/24 01:35:30;;;;;;;5.88;1.50;;;12.20;99.90;;;;;;4981046;28;20046;-34
2023/09/24 01:38:06;;;;;;;4.55;1.58;;;12.20;99.90;;;;;;4979003;28;20057;-34
2023/09/24 01:40:38;;;;;;;4.25;1.23;;;12.20;99.90;;;;;;4980718;28;20104;-34
2023/09/24 01:43:08;;;;;;;5.10;1.52;;;12.20;99.90;;;;;;4981249;28;20129;-35
2023/09/24 01:45:34;;;;;;;3.85;1.50;;;12.20;99.90;;;;;;4980972;28;20074;-35
2023/09/24 01:48:03;;;;;;;3.22;1.40;;;12.10;99.90;;;;;;4979906;28;20508;-34
2023/09/24 01:50:32;;;;;;;4.15;1.45;;;12.00;99.90;;;;;;4986626;28;20049;-34
2023/09/24 01:52:58;;;;;;;2.90;1.10;;;12.00;99.90;;;;;;4983610;28;20542;-35
2023/09/24 01:55:24;;;;;;;3.92;1.17;;;12.00;99.90;;;;;;4985593;28;20053;-35
2023/09/24 01:57:51;;;;;;;3.90;1.30;;;12.00;99.90;;;;;;4987211;28;20061;-35
2023/09/24 02:00:23;;;;;;;3.60;1.48;;;11.90;99.90;;;;;;4989181;28;20053;-34
2023/09/24 02:03:00;;;;;;;2.60;1.20;;;11.90;99.90;;;;;;4980937;28;20057;-35
2023/09/24 02:05:32;;;;;;;4.00;1.40;;;11.90;99.90;;;;;;4995643;28;20085;-35
2023/09/24 02:07:58;;;;;;;4.18;1.58;;;11.90;99.90;;;;;;4969398;28;20062;-35
2023/09/24 02:10:23;;;;;;;2.67;1.15;;;11.80;99.90;;;;;;4984525;28;20125;-35
2023/09/24 02:12:49;;;;;;;3.13;1.02;;;11.80;99.90;;;;;;4986093;28;20245;-35
2023/09/24 02:15:20;;;;;;;2.53;1.42;;;11.80;99.90;;;;;;4985586;28;20136;-35
2023/09/24 02:17:48;;;;;;;4.03;1.48;;;11.80;99.90;;;;;;4984588;28;20050;-34
2023/09/24 02:20:25;;;;;;;3.58;1.42;;;11.70;99.90;;;;;;4980498;28;20511;-34
2023/09/24 02:22:53;;;;;;;2.00;0.93;;;11.70;99.90;;;;;;4977541;28;20049;-35
2023/09/24 02:25:23;;;;;;;2.72;1.20;;;11.70;99.90;;;;;;4982333;28;20046;-34
2023/09/24 02:27:50;;;;;;;2.67;1.08;;;11.70;99.90;;;;;;4981671;28;20506;-34
2023/09/24 02:30:16;;;;;;;3.40;1.27;;;11.70;99.90;;;;;;4983138;28;20054;-34
2023/09/24 02:32:43;;;;;;;5.28;1.10;;;11.60;99.90;;;;;;4979986;28;20061;-35
2023/09/24 02:35:12;;;;;;;3.15;1.08;;;11.70;99.90;;;;;;4980394;28;20050;-34
2023/09/24 02:37:45;;;;;;;3.05;1.00;;;11.60;99.90;;;;;;4982971;28;20051;-34
2023/09/24 02:40:18;;;;;;;2.47;1.30;;;11.60;99.90;;;;;;4984015;28;20157;-35
2023/09/24 02:42:46;;;;;;;4.05;1.58;;;11.50;99.90;;;;;;4982993;28;20496;-34
2023/09/24 02:45:12;;;;;;;4.80;1.60;;;11.50;99.90;;;;;;4985819;28;20416;-34
2023/09/24 02:47:38;;;;;;;5.53;1.27;;;11.50;99.90;;;;;;4979500;28;20042;-35
2023/09/24 02:50:08;;;;;;;6.32;1.60;;;11.50;99.90;;;;;;4970309;28;20073;-34
2023/09/24 02:52:35;;;;;;;4.55;1.50;;;11.40;99.90;;;;;;4983524;28;20046;-35
2023/09/24 02:55:03;;;;;;;4.90;1.98;;;11.40;99.90;;;;;;4982597;28;20065;-34
2023/09/24 02:57:29;;;;;;;4.47;1.85;;;11.40;99.90;;;;;;4979667;28;20042;-35
2023/09/24 02:59:57;;;;;;;4.32;1.80;;;11.40;99.90;;;;;;4981761;28;20058;-35
2023/09/24 03:02:23;;;;;;;7.25;2.03;;;11.30;99.90;;;;;;4970685;28;20062;-35
2023/09/24 03:04:50;;;;;;;4.22;1.80;;;11.30;99.90;;;;;;4985887;28;20053;-35
2023/09/24 03:07:15;;;;;;;4.97;2.40;;;11.30;99.90;;;;;;4978054;28;20053;-35
2023/09/24 03:09:41;;;;;;;6.10;2.47;;;11.30;99.90;;;;;;4983219;28;20050;-35
2023/09/24 03:12:07;;;;;;;3.72;1.83;;;11.20;99.90;;;;;;4985120;28;20563;-35
2023/09/24 03:14:33;;;;;;;3.70;1.60;;;11.20;99.90;;;;;;4979717;28;20054;-35
2023/09/24 03:16:59;;;;;;;3.88;1.92;;;11.20;99.90;;;;;;4985062;28;20129;-35
2023/09/24 03:19:25;;;;;;;4.20;2.05;;;11.10;99.90;;;;;;5002223;28;20050;-36
2023/09/24 03:21:50;;;;;;;4.03;2.10;;;11.10;99.90;;;;;;4982226;28;20484;-35
2023/09/24 03:24:16;;;;;;;4.47;1.90;;;11.00;99.90;;;;;;4983322;28;20500;-35
2023/09/24 03:26:42;;;;;;;4.40;2.10;;;11.00;99.90;;;;;;4992249;28;20053;-35
2023/09/24 03:29:08;;;;;;;5.50;2.40;;;11.00;99.90;;;;;;4980570;28;20054;-35
2023/09/24 03:31:33;;;;;;;5.55;2.30;;;11.00;99.90;;;;;;4971656;28;20046;-35
2023/09/24 03:33:59;;;;;;;4.70;2.38;;;11.00;99.90;;;;;;4979867;28;20050;-35
2023/09/24 03:36:25;;;;;;;5.55;2.45;;;11.00;99.90;;;;;;4963360;28;20078;-35
2023/09/24 03:38:51;;;;;;;4.60;2.15;;;11.00;99.90;;;;;;4981352;28;20042;-35
2023/09/24 03:41:17;;;;;;;3.33;1.90;;;11.00;99.90;;;;;;4986154;28;20043;-35
2023/09/24 03:43:42;;;;;;;6.70;2.20;;;11.00;99.90;;;;;;4982498;28;20042;-35
2023/09/24 03:46:09;;;;;;;4.25;1.83;;;11.00;99.90;;;;;;4980647;28;20104;-35
2023/09/24 03:48:35;;;;;;;4.65;2.30;;;11.00;99.90;;;;;;4978550;28;20168;-35
2023/09/24 03:51:01;;;;;;;3.70;1.95;;;11.00;99.90;;;;;;4984422;28;20472;-34
2023/09/24 03:53:27;;;;;;;7.68;2.53;;;11.00;99.90;;;;;;4999099;28;20046;-34
2023/09/24 03:55:53;;;;;;;4.57;1.80;;;11.00;99.90;;;;;;4981719;28;20403;-34
2023/09/24 03:58:19;;;;;;;5.68;2.33;;;11.00;99.90;;;;;;4984583;28;20054;-35
2023/09/24 04:00:44;;;;;;;4.85;2.15;;;10.90;99.90;;;;;;4986377;28;20065;-34
2023/09/24 04:03:12;;;;;;;5.30;2.28;;;10.90;99.90;;;;;;4987580;28;20530;-34
2023/09/24 04:05:37;;;;;;;6.55;2.60;;;10.90;99.90;;;;;;4987191;28;20169;-34
2023/09/24 04:08:03;;;;;;;7.18;2.60;;;10.90;99.90;;;;;;4985225;28;20137;-34
2023/09/24 04:10:30;;;;;;;5.13;2.47;;;10.80;99.90;;;;;;4984776;28;20050;-34
2023/09/24 04:12:57;;;;;;;4.90;2.45;;;10.80;99.90;;;;;;4985604;28;20162;-35
2023/09/24 04:15:29;;;;;;;4.95;2.60;;;10.80;99.90;;;;;;4986400;28;20109;-34
2023/09/24 04:17:59;;;;;;;6.60;2.67;;;10.80;99.90;;;;;;4983919;28;20471;-35
2023/09/24 04:20:29;;;;;;;5.70;2.75;;;10.80;99.90;;;;;;4968633;28;20117;-34
2023/09/24 04:22:55;;;;;;;6.00;2.45;;;10.80;99.90;;;;;;4988486;28;20155;-34
2023/09/24 04:25:22;;;;;;;5.00;2.80;;;10.80;99.90;;;;;;4984586;28;20136;-35
2023/09/24 04:27:48;;;;;;;7.13;2.67;;;10.80;99.90;;;;;;4982410;28;20150;-34
2023/09/24 04:30:17;;;;;;;6.90;2.72;;;10.70;99.90;;;;;;4984428;28;20054;-34
2023/09/24 04:32:47;;;;;;;8.15;3.17;;;10.70;99.90;;;;;;4986597;28;20050;-34
2023/09/24 04:35:12;;;;;;;9.20;3.08;;;10.70;99.90;;;;;;4980307;28;20141;-35
2023/09/24 04:37:39;;;;;;;7.00;2.80;;;10.60;99.90;;;;;;4981181;28;20430;-35
2023/09/24 04:40:08;;;;;;;7.50;3.10;;;10.60;99.90;;;;;;4983370;28;20057;-34
2023/09/24 04:42:34;;;;;;;5.63;2.58;;;10.60;99.90;;;;;;4983210;28;20550;-34
2023/09/24 04:45:00;;;;;;;6.80;3.35;;;10.60;99.90;;;;;;4981377;28;20137;-50
2023/09/24 04:47:27;;;;;;;5.85;3.17;;;10.60;99.90;;;;;;4981318;28;20123;-34
2023/09/24 04:49:52;;;;;;;8.13;4.60;;;10.50;99.90;;;;;;4966568;28;20106;-35
2023/09/24 04:52:18;;;;;;;5.88;3.00;;;10.50;99.90;;;;;;4985051;28;20666;-34
2023/09/24 04:54:44;;;;;;;6.45;3.25;;;10.50;99.90;;;;;;4986959;28;20488;-34
2023/09/24 04:57:10;;;;;;;5.03;3.00;;;10.50;99.90;;;;;;4998775;28;20074;-34
2023/09/24 04:59:36;;;;;;;10.45;3.83;;;10.50;99.90;;;;;;4981683;28;20692;-34
2023/09/24 05:02:01;;;;;;;4.90;2.75;;;10.50;99.90;;;;;;4979316;28;20054;-34
2023/09/24 05:04:27;;;;;;;5.57;3.17;;;10.50;99.90;;;;;;4981977;28;20497;-34
2023/09/24 05:06:54;;;;;;;8.68;3.03;;;10.50;99.90;;;;;;4983069;28;20126;-34
2023/09/24 05:09:20;;;;;;;8.40;3.10;;;10.40;99.90;;;;;;4983139;28;20080;-34
2023/09/24 05:11:46;;;;;;;8.27;4.13;;;10.40;99.90;;;;;;4988758;28;20050;-35
2023/09/24 05:14:12;;;;;;;8.20;3.80;;;10.30;99.90;;;;;;4985326;28;20058;-34
2023/09/24 05:16:38;;;;;;;6.45;3.85;;;10.30;99.90;;;;;;4986385;28;20054;-35
2023/09/24 05:19:05;;;;;;;6.88;3.47;;;10.30;99.90;;;;;;4984581;28;20046;-36
2023/09/24 05:21:31;;;;;;;8.30;3.60;;;10.30;99.90;;;;;;4979068;28;20061;-34
2023/09/24 05:23:57;;;;;;;8.02;3.67;;;10.30;99.90;;;;;;4986889;28;20052;-34
2023/09/24 05:26:23;;;;;;;5.80;3.58;;;10.30;99.90;;;;;;4984524;28;20046;-34
2023/09/24 05:28:48;;;;;;;6.68;3.33;;;10.30;99.90;;;;;;4984146;28;20111;-34
2023/09/24 05:31:16;;;;;;;6.40;3.83;;;10.30;99.90;;;;;;4985669;28;20061;-34
2023/09/24 05:33:44;;;;;;;7.18;3.78;;;10.30;99.90;;;;;;5001467;28;20120;-34
2023/09/24 05:36:10;;;;;;;10.60;3.47;;;10.30;99.90;;;;;;4980617;28;20050;-34
2023/09/24 05:38:36;;;;;;;6.75;3.63;;;10.30;99.90;;;;;;4982794;28;20053;-34
2023/09/24 05:41:02;;;;;;;7.68;3.97;;;10.30;99.90;;;;;;4983210;28;20109;-34
2023/09/24 05:43:28;;;;;;;8.40;3.78;;;10.30;99.90;;;;;;4982360;28;20054;-34
2023/09/24 05:45:53;;;;;;;7.32;3.15;;;10.30;99.90;;;;;;4985503;28;20418;-34
2023/09/24 05:48:19;;;;;;;9.23;3.55;;;10.30;99.90;;;;;;4984460;28;20058;-34
2023/09/24 05:50:45;;;;;;;8.55;3.55;;;10.30;99.90;;;;;;4986388;28;20431;-35
2023/09/24 05:53:12;;;;;;;6.93;3.70;;;10.30;99.90;;;;;;4984525;28;20074;-34
2023/09/24 05:55:38;;;;;;;6.97;3.97;;;10.30;99.90;;;;;;4981994;28;20076;-34
2023/09/24 05:58:05;;;;;;;7.65;3.72;;;10.40;99.90;;;;;;4983503;28;20058;-35
2023/09/24 06:00:33;;;;;;;8.80;3.97;;;10.40;99.90;;;;;;4985127;28;20048;-35
2023/09/24 06:02:59;;;;;;;8.57;4.15;;;10.40;99.90;;;;;;4986176;28;20046;-35
2023/09/24 06:05:25;;;;;;;11.10;3.72;;;10.40;99.90;;;;;;4984110;28;20701;-35
2023/09/24 06:07:50;;;;;;;7.60;3.78;;;10.40;99.90;;;;;;4983932;28;20053;-35
2023/09/24 06:10:16;;;;;;;7.53;3.65;;;10.50;99.90;;;;;;4982312;28;20086;-35
2023/09/24 06:12:41;;;;;;;6.57;3.90;;;10.50;99.90;;;;;;4981746;28;20046;-35
2023/09/24 06:15:10;;;;;;;10.85;4.13;;;10.50;99.90;;;;;;4980138;28;20081;-35
2023/09/24 06:17:36;;;;;;;8.85;4.10;;;10.50;99.90;;;;;;4982307;28;20085;-35
2023/09/24 06:20:03;;;;;;;7.25;4.10;;;10.50;99.90;;;;;;4979930;28;20093;-35
2023/09/24 06:22:29;;;;;;;6.38;3.63;;;10.50;99.90;;;;;;4983045;28;20050;-35
2023/09/24 06:24:54;;;;;;;9.43;3.75;;;10.60;99.90;;;;;;4987193;28;20503;-35
2023/09/24 06:27:21;;;;;;;5.90;3.65;;;10.60;99.90;;;;;;4982729;28;20750;-35
2023/09/24 06:29:47;;;;;;;9.80;3.67;;;10.70;99.90;;;;;;4968268;28;20054;-36
2023/09/24 06:32:13;;;;;;;8.60;4.53;;;10.70;99.90;;;;;;4980376;28;20112;-35
2023/09/24 06:34:39;;;;;;;6.57;3.70;;;10.70;99.90;;;;;;4978051;28;20050;-35
2023/09/24 06:37:05;;;;;;;6.00;3.40;;;10.70;99.90;;;;;;4983036;28;20427;-35
2023/09/24 06:39:33;;;;;;;9.57;3.95;;;10.80;99.90;;;;;;4981025;28;20062;-35
2023/09/24 06:42:00;;;;;;;4.95;3.40;;;10.80;99.90;;;;;;4982693;28;20046;-35
2023/09/24 06:44:26;;;;;;;6.28;3.75;;;10.80;99.90;;;;;;4986390;28;20046;-35
2023/09/24 06:46:52;;;;;;;10.13;4.35;;;10.80;99.90;;;;;;4985667;28;20061;-35
2023/09/24 06:49:19;;;;;;;6.70;3.65;;;10.90;99.90;;;;;;4979137;28;20656;-34
2023/09/24 06:51:45;;;;;;;7.15;3.97;;;10.90;99.90;;;;;;4983409;28;20131;-35
2023/09/24 06:54:10;;;;;;;10.00;4.10;;;10.90;99.90;;;;;;4983013;28;20062;-35
2023/09/24 06:56:36;;;;;;;7.70;4.10;;;10.90;99.90;;;;;;4980574;28;20492;-35
2023/09/24 06:59:08;;;;;;;6.63;3.80;;;11.00;99.90;;;;;;4981387;28;20501;-35
2023/09/24 07:01:34;;;;;;;8.75;4.10;;;11.00;99.90;;;;;;4984733;28;20065;-35
2023/09/24 07:03:59;;;;;;;9.82;4.22;;;11.00;99.90;;;;;;4981619;28;20061;-35
2023/09/24 07:06:26;;;;;;;6.40;4.03;;;11.10;99.90;;;;;;4984308;28;20141;-33
2023/09/24 07:08:51;;;;;;;7.72;4.60;;;11.10;99.90;;;;;;4984232;28;20404;-35
2023/09/24 07:11:20;;;;;;;8.95;3.90;;;11.10;99.90;;;;;;4977666;28;20051;-34
2023/09/24 07:13:46;;;;;;;9.80;4.20;;;11.20;99.90;;;;;;4983071;28;20054;-34
2023/09/24 07:16:11;;;;;;;8.02;3.83;;;11.10;99.90;;;;;;4978342;28;20101;-34
2023/09/24 07:18:37;;;;;;;9.02;4.22;;;11.20;99.90;;;;;;4986415;28;20463;-34
2023/09/24 07:21:03;;;;;;;7.50;4.03;;;11.30;99.90;;;;;;4978025;28;20053;-34
2023/09/24 07:23:29;;;;;;;11.85;4.57;;;11.30;99.90;;;;;;4981310;28;20086;-34
2023/09/24 07:25:55;;;;;;;6.78;4.65;;;11.30;99.90;;;;;;4982719;28;20086;-34
2023/09/24 07:28:24;;;;;;;7.28;4.43;;;11.40;99.90;;;;;;5000262;28;20054;-35
2023/09/24 07:30:50;;;;;;;9.35;3.90;;;11.40;99.90;;;;;;4985771;28;20077;-34
2023/09/24 07:33:16;;;;;;;7.15;3.60;;;11.50;99.90;;;;;;4987750;28;20066;-35
2023/09/24 07:35:41;;;;;;;6.10;3.67;;;11.60;99.90;;;;;;4984706;28;20420;-34
2023/09/24 07:38:08;;;;;;;6.10;3.78;;;11.60;99.90;;;;;;4985506;28;20081;-35
2023/09/24 07:40:33;;;;;;;8.07;4.15;;;11.70;99.90;;;;;;4984782;28;20058;-46
2023/09/24 07:42:59;;;;;;;7.40;4.13;;;11.80;99.90;;;;;;4984823;28;20054;-34
2023/09/24 07:45:25;;;;;;;8.05;4.13;;;11.80;99.90;;;;;;4982873;28;20065;-34
2023/09/24 07:47:50;;;;;;;6.72;3.70;;;11.90;99.90;;;;;;4980605;28;20061;-34
2023/09/24 07:50:16;;;;;;;10.82;4.97;;;12.00;99.90;;;;;;4986453;28;20038;-34
2023/09/24 07:52:41;;;;;;;7.30;3.63;;;12.10;99.90;;;;;;4982010;28;20046;-33
2023/09/24 07:55:07;;;;;;;6.82;3.75;;;12.20;99.90;;;;;;4984775;28;20082;-33
2023/09/24 07:57:33;;;;;;;7.25;4.00;;;12.20;99.90;;;;;;4982929;28;20480;-33
2023/09/24 07:59:59;;;;;;;8.15;3.80;;;12.30;99.90;;;;;;4987069;28;20058;-33
2023/09/24 08:02:25;;;;;;;8.75;4.18;;;12.40;99.90;;;;;;4983427;28;20065;-33
2023/09/24 08:04:52;;;;;;;7.55;4.03;;;12.50;99.90;;;;;;4986561;28;20141;-33
2023/09/24 08:07:17;;;;;;;8.98;3.90;;;12.60;99.90;;;;;;4987250;28;20176;-33
2023/09/24 08:09:43;;;;;;;9.48;3.80;;;12.60;99.90;;;;;;4987869;28;20502;-33
2023/09/24 08:12:09;;;;;;;7.80;3.13;;;12.70;99.90;;;;;;4990964;28;20050;-33
2023/09/24 08:14:34;;;;;;;7.63;3.63;;;12.80;99.90;;;;;;4989300;28;20097;-33
2023/09/24 08:17:02;;;;;;;9.43;4.40;;;12.80;99.90;;;;;;4985024;28;20132;-33
2023/09/24 08:19:30;;;;;;;7.28;3.30;;;12.90;99.90;;;;;;4985271;28;20046;-33
2023/09/24 08:21:57;;;;;;;7.20;3.33;;;13.00;99.90;;;;;;4990404;28;20061;-33
2023/09/24 08:24:23;;;;;;;8.45;3.03;;;13.10;99.90;;;;;;4987250;28;20057;-33
2023/09/24 08:26:48;;;;;;;10.95;3.80;;;13.20;99.90;;;;;;4987830;28;20054;-33
2023/09/24 08:29:14;;;;;;;6.40;3.10;;;13.20;99.90;;;;;;4985475;28;20537;-33
2023/09/24 08:31:40;;;;;;;6.22;3.08;;;13.30;99.90;;;;;;4989410;28;20105;-33
2023/09/24 08:34:06;;;;;;;6.53;3.67;;;13.50;99.90;;;;;;4983936;28;20129;-33
2023/09/24 08:36:32;;;;;;;10.05;3.95;;;13.60;99.90;;;;;;4988809;28;20092;-34
2023/09/24 08:38:59;;;;;;;7.25;3.15;;;13.70;99.90;;;;;;4981867;28;20504;-34
2023/09/24 08:41:24;;;;;;;9.00;3.00;;;13.80;99.90;;;;;;4983875;28;20136;-34
2023/09/24 08:43:55;;;;;;;7.57;3.35;;;13.90;99.90;;;;;;4986933;28;20205;-34
2023/09/24 08:46:21;;;;;;;7.03;3.17;;;14.00;99.90;;;;;;4985661;28;20046;-35
2023/09/24 08:48:47;;;;;;;6.43;2.85;;;14.10;99.90;;;;;;4979466;28;20062;-34
2023/09/24 08:51:14;;;;;;;7.22;3.17;;;14.30;99.90;;;;;;4981547;28;20512;-34
2023/09/24 08:53:40;;;;;;;7.18;2.50;;;14.40;99.90;;;;;;4981290;28;20101;-34
2023/09/24 08:56:05;;;;;;;6.75;2.40;;;14.50;99.90;;;;;;4994126;28;20094;-33
2023/09/24 08:58:31;;;;;;;6.40;2.65;;;14.60;99.90;;;;;;4967179;28;20042;-33
2023/09/24 09:00:58;;;;;;;4.47;2.00;;;14.70;99.90;;;;;;4984280;28;20145;-34
2023/09/24 09:03:23;;;;;;;4.63;2.13;;;14.80;99.90;;;;;;4983530;28;20049;-33
2023/09/24 09:05:51;;;;;;;5.93;2.20;;;14.80;99.90;;;;;;4982634;28;20046;-34
2023/09/24 09:08:17;;;;;;;6.28;1.95;;;14.90;99.90;;;;;;4988682;28;20050;-34
2023/09/24 09:10:42;;;;;;;4.18;1.92;;;15.00;99.90;;;;;;4982270;28;20463;-34
2023/09/24 09:13:09;;;;;;;4.82;2.25;;;15.00;99.90;;;;;;4989391;28;20100;-34
2023/09/24 09:15:37;;;;;;;5.25;2.53;;;15.10;99.90;;;;;;4985800;28;20073;-34
2023/09/24 09:18:03;;;;;;;4.18;1.95;;;15.10;99.90;;;;;;4988592;28;20050;-34
2023/09/24 09:20:42;;;;;;;5.10;1.73;;;15.20;99.90;;;;;;4998763;28;20488;-34
2023/09/24 09:23:12;;;;;;;3.53;1.35;;;15.30;99.90;;;;;;4986151;28;20509;-35
2023/09/24 09:25:48;;;;;;;6.28;2.00;;;15.40;99.90;;;;;;4985399;28;20066;-34
2023/09/24 09:28:24;;;;;;;6.20;2.00;;;15.50;99.90;;;;;;4977324;28;20042;-34
2023/09/24 09:31:06;;;;;;;3.92;1.73;;;15.50;99.90;;;;;;4971702;28;20664;-34
2023/09/24 09:33:38;;;;;;;7.70;1.83;;;15.50;99.90;;;;;;4973495;28;20043;-34
2023/09/24 09:36:18;;;;;;;4.53;1.30;;;15.60;99.90;;;;;;4983026;28;20428;-33
2023/09/24 09:38:44;;;;;;;5.75;1.33;;;15.70;99.90;;;;;;4983298;28;20175;-33
2023/09/24 09:41:10;;;;;;;5.45;1.40;;;15.80;99.90;;;;;;4982547;28;20872;-33
2023/09/24 09:43:37;;;;;;;5.00;1.40;;;15.90;99.90;;;;;;4982315;28;20080;-34
2023/09/24 09:46:07;;;;;;;3.38;1.48;;;15.90;99.90;;;;;;4966093;28;20045;-34
2023/09/24 09:48:33;;;;;;;5.50;1.27;;;15.90;99.90;;;;;;4986100;28;20057;-34
2023/09/24 09:51:07;;;;;;;5.47;1.52;;;15.90;99.90;;;;;;4997280;28;20704;-34
2023/09/24 09:53:35;;;;;;;3.65;1.35;;;15.90;99.90;;;;;;4982251;28;20050;-34
2023/09/24 09:56:07;;;;;;;5.05;1.30;;;16.00;99.90;;;;;;4987660;28;20046;-34
2023/09/24 09:58:35;;;;;;;3.38;1.00;;;16.20;99.90;;;;;;4982435;28;20504;-34
2023/09/24 10:01:02;;;;;;;6.00;0.98;;;16.20;99.90;;;;;;4985719;28;20046;-34
2023/09/24 10:03:32;;;;;;;5.63;1.10;;;16.30;99.90;;;;;;4982055;28;20100;-33
2023/09/24 10:06:00;;;;;;;4.95;1.75;;;16.40;99.90;;;;;;4966118;28;20121;-34
2023/09/24 10:08:34;;;;;;;5.07;0.90;;;16.50;99.90;;;;;;4983897;28;20536;-34
2023/09/24 10:11:01;;;;;;;2.85;0.88;;;16.60;99.90;;;;;;4981113;28;20058;-34
2023/09/24 10:13:47;;;;;;;3.92;1.00;;;16.70;99.90;;;;;;4983640;28;20078;-34
2023/09/24 10:16:31;;;;;;;3.03;1.08;;;16.80;99.90;;;;;;4983411;28;20057;-34
2023/09/24 10:19:07;;;;;;;2.80;0.75;;;16.80;99.90;;;;;;4981034;28;20050;-34
2023/09/24 10:21:42;;;;;;;3.50;0.88;;;16.90;99.90;;;;;;4980953;28;20077;-34
2023/09/24 10:24:13;;;;;;;8.48;0.85;;;17.00;99.90;;;;;;4982250;28;20046;-34
2023/09/24 10:27:07;;;;;;;4.25;0.73;;;17.00;99.90;;;;;;4982299;28;20063;-34
2023/09/24 10:29:45;;;;;;;4.13;0.75;;;17.00;99.90;;;;;;4983843;28;20559;-34
2023/09/24 10:32:17;;;;;;;3.30;0.50;;;17.00;99.90;;;;;;4979172;28;20456;-34
2023/09/24 10:34:54;;;;;;;2.50;0.80;;;17.10;99.90;;;;;;4980400;28;20119;-34
2023/09/24 10:37:24;;;;;;;3.25;0.85;;;17.10;99.90;;;;;;4979051;28;20297;-34
2023/09/24 10:42:26;;;;;;;6.65;0.70;;;17.30;99.90;;;;;;4982262;28;20077;-34
2023/09/24 10:45:07;;;;;;;6.90;0.70;;;17.30;99.90;;;;;;4965242;28;20104;-34
2023/09/24 10:47:38;;;;;;;2.75;0.73;;;17.40;99.90;;;;;;4980652;28;20058;-34
2023/09/24 10:50:15;;;;;;;4.97;0.80;;;17.60;99.90;;;;;;4980220;28;20108;-34
2023/09/24 10:52:52;;;;;;;3.08;0.63;;;17.60;99.90;;;;;;4979689;28;20058;-34
2023/09/24 10:55:30;;;;;;;3.03;0.60;;;17.70;99.90;;;;;;4979986;28;20048;-34
2023/09/24 10:58:11;;;;;;;4.97;0.90;;;17.70;99.90;;;;;;4981971;28;20061;-34
2023/09/24 11:00:37;;;;;;;2.80;0.80;;;17.80;99.90;;;;;;4987183;28;20081;-34
2023/09/24 11:03:05;;;;;;;3.55;1.13;;;17.80;99.90;;;;;;4989733;28;20042;-34
2023/09/24 11:05:49;;;;;;;4.35;0.70;;;17.90;99.90;;;;;;4988101;28;20077;-33
2023/09/24 11:08:17;;;;;;;4.22;0.65;;;17.90;99.90;;;;;;4985800;28;20663;-34
2023/09/24 11:10:49;;;;;;;1.88;0.63;;;18.00;99.90;;;;;;4988178;28;20496;-34
2023/09/24 11:13:15;;;;;;;2.35;0.70;;;18.10;99.90;;;;;;4984741;28;20038;-34
2023/09/24 11:15:42;;;;;;;1.85;0.52;;;18.10;99.90;;;;;;4989715;28;20649;-34
2023/09/24 11:18:10;;;;;;;4.05;0.70;;;18.20;99.90;;;;;;4985901;28;20054;-34
2023/09/24 11:20:36;;;;;;;2.42;0.90;;;18.30;99.90;;;;;;4990331;28;20046;-34
2023/09/24 11:23:05;;;;;;;4.72;0.80;;;18.40;99.90;;;;;;4989092;28;20053;-34
2023/09/24 11:25:31;;;;;;;2.05;0.50;;;18.60;99.90;;;;;;4986972;28;20039;-34
2023/09/24 11:28:00;;;;;;;2.95;0.85;;;18.70;99.90;;;;;;4986821;28;20046;-33
2023/09/24 11:30:50;;;;;;;3.55;0.60;;;18.80;99.90;;;;;;4984631;28;20054;-34
2023/09/24 11:33:18;;;;;;;1.73;0.57;;;18.90;99.90;;;;;;4989991;28;20056;-34
2023/09/24 11:35:44;;;;;;;4.07;0.70;;;19.10;99.90;;;;;;4983970;28;20054;-34
2023/09/24 11:38:10;;;;;;;1.58;0.40;;;19.20;99.90;;;;;;4989113;28;20125;-34
2023/09/24 11:40:38;;;;;;;1.90;0.50;;;19.30;99.90;;;;;;4986626;28;20149;-34
2023/09/24 11:43:05;;;;;;;4.43;0.68;;;19.20;99.90;;;;;;4985779;28;20089;-34
2023/09/24 11:45:48;;;;;;;2.38;0.65;;;19.10;99.90;;;;;;4987063;28;20485;-34
2023/09/24 11:48:19;;;;;;;2.38;0.50;;;19.00;99.90;;;;;;4986238;28;20047;-34
2023/09/24 11:50:50;;;;;;;3.08;0.90;;;19.10;99.90;;;;;;4985015;28;20124;-34
2023/09/24 11:53:18;;;;;;;4.00;0.60;;;19.10;99.90;;;;;;4984128;28;20061;-34
2023/09/24 11:55:44;;;;;;;2.50;0.60;;;19.00;99.90;;;;;;4985100;28;20411;-34
2023/09/24 11:58:11;;;;;;;1.67;0.50;;;18.90;99.90;;;;;;4987840;28;20054;-34
2023/09/24 12:00:43;;;;;;;2.13;0.65;;;18.80;99.90;;;;;;4988124;28;20056;-34
2023/09/24 12:03:08;;;;;;;1.92;0.52;;;18.80;99.90;;;;;;4985107;28;20512;-34
2023/09/24 12:05:34;;;;;;;2.88;0.60;;;18.90;99.90;;;;;;4985499;28;20057;-37
2023/09/24 12:08:05;;;;;;;2.47;0.68;;;18.80;99.90;;;;;;4987857;28;20124;-34
2023/09/24 12:10:33;;;;;;;1.67;0.50;;;18.90;99.90;;;;;;4983855;28;20046;-34
2023/09/24 12:13:04;;;;;;;2.60;0.75;;;19.00;99.90;;;;;;4981173;28;20543;-34
2023/09/24 12:15:31;;;;;;;2.30;0.63;;;19.20;99.90;;;;;;4985689;28;20050;-34
2023/09/24 12:17:59;;;;;;;2.30;0.70;;;19.40;99.90;;;;;;4979829;28;20460;-34
2023/09/24 12:20:25;;;;;;;2.00;0.60;;;19.60;99.90;;;;;;4980387;28;20140;-34
2023/09/24 12:22:51;;;;;;;2.78;0.60;;;19.80;99.90;;;;;;4989351;28;20058;-34
2023/09/24 12:25:17;;;;;;;2.30;0.70;;;19.80;99.90;;;;;;4982123;28;20500;-34
2023/09/24 12:27:43;;;;;;;3.10;0.60;;;19.70;99.90;;;;;;4985246;28;20064;-34
2023/09/24 12:30:11;;;;;;;2.88;0.50;;;19.70;99.90;;;;;;4980225;28;20078;-34
2023/09/24 12:32:41;;;;;;;4.43;0.63;;;19.80;99.90;;;;;;4979478;28;20054;-34
2023/09/24 12:35:09;;;;;;;3.33;0.80;;;20.00;99.90;;;;;;5002423;28;20108;-34
2023/09/24 12:37:39;;;;;;;2.85;0.50;;;20.20;99.90;;;;;;4989282;28;20069;-34
2023/09/24 12:40:09;;;;;;;4.38;0.50;;;20.50;99.90;;;;;;4986529;28;20097;-35
2023/09/24 12:42:36;;;;;;;3.63;0.70;;;20.80;99.90;;;;;;4998061;28;20145;-35
2023/09/24 12:45:02;;;;;;;3.10;0.40;;;21.30;99.90;;;;;;4985969;28;20089;-35
2023/09/24 12:47:28;;;;;;;4.13;0.60;;;21.50;99.90;;;;;;4964891;28;20049;-35
2023/09/24 12:49:57;;;;;;;2.75;0.45;;;21.70;99.90;;;;;;4985211;28;20448;-35
2023/09/24 12:52:25;;;;;;;2.50;0.60;;;21.90;99.90;;;;;;4985781;28;20047;-35